sensor_id;sensor_type;location;lat;lon;timestamp;pressure;altitude;pressure_sealevel;temperature;humidity
5298;BME280;14738;42.668;23.250;2023-02-20T00:02:00;48374.41;;;-141.90;43.65
5298;BME280;14738;42.668;23.250;2023-02-20T00:04:25;48402.22;;;-141.90;43.85
5298;BME280;14738;42.668;23.250;2023-02-20T00:06:50;48370.44;;;-141.90;44.05
5298;BME280;14738;42.668;23.250;2023-02-20T00:09:16;48362.50;;;-141.90;44.17
5298;BME280;14738;42.668;23.250;2023-02-20T00:11:41;48406.19;;;-141.90;44.13
5298;BME280;14738;42.668;23.250;2023-02-20T00:14:07;48378.38;;;-141.90;44.72
5298;BME280;14738;42.668;23.250;2023-02-20T00:16:32;48366.47;;;-141.90;44.79
5298;BME280;14738;42.668;23.250;2023-02-20T00:18:58;48374.41;;;-141.90;45.06
5298;BME280;14738;42.668;23.250;2023-02-20T00:21:23;48358.53;;;-141.90;44.90
5298;BME280;14738;42.668;23.250;2023-02-20T00:23:49;48374.41;;;-141.90;45.23
5298;BME280;14738;42.668;23.250;2023-02-20T00:26:14;48382.34;;;-141.90;45.30
5298;BME280;14738;42.668;23.250;2023-02-20T00:28:41;48374.41;;;-141.90;45.58
5298;BME280;14738;42.668;23.250;2023-02-20T00:31:10;48366.47;;;-141.90;45.93
5298;BME280;14738;42.668;23.250;2023-02-20T00:33:36;48356.56;;;-141.90;46.16
5298;BME280;14738;42.668;23.250;2023-02-20T00:36:02;48376.41;;;-141.90;46.30
5298;BME280;14738;42.668;23.250;2023-02-20T00:38:27;48384.34;;;-141.90;46.93
5298;BME280;14738;42.668;23.250;2023-02-20T00:40:53;48382.34;;;-141.90;46.70
5298;BME280;14738;42.668;23.250;2023-02-20T00:43:18;48382.34;;;-141.90;46.67
5298;BME280;14738;42.668;23.250;2023-02-20T00:45:44;48362.50;;;-141.90;47.14
5298;BME280;14738;42.668;23.250;2023-02-20T00:48:09;48372.44;;;-141.90;47.35
5298;BME280;14738;42.668;23.250;2023-02-20T00:50:35;48368.47;;;-141.90;47.48
5298;BME280;14738;42.668;23.250;2023-02-20T00:53:00;48378.38;;;-141.90;47.31
5298;BME280;14738;42.668;23.250;2023-02-20T00:55:25;48376.41;;;-141.90;47.33
5298;BME280;14738;42.668;23.250;2023-02-20T00:57:51;48388.31;;;-141.90;47.43
5298;BME280;14738;42.668;23.250;2023-02-20T01:00:24;48386.34;;;-141.90;47.51
5298;BME280;14738;42.668;23.250;2023-02-20T01:02:50;48402.22;;;-141.90;47.72
5298;BME280;14738;42.668;23.250;2023-02-20T01:05:15;48392.28;;;-141.90;48.01
5298;BME280;14738;42.668;23.250;2023-02-20T01:07:41;48378.38;;;-141.90;48.14
5298;BME280;14738;42.668;23.250;2023-02-20T01:10:07;48386.34;;;-141.90;48.23
5298;BME280;14738;42.668;23.250;2023-02-20T01:12:33;48386.34;;;-141.90;48.25
5298;BME280;14738;42.668;23.250;2023-02-20T01:14:58;48360.53;;;-141.90;48.64
5298;BME280;14738;42.668;23.250;2023-02-20T01:17:24;48412.13;;;-141.90;48.57
5298;BME280;14738;42.668;23.250;2023-02-20T01:19:49;48406.19;;;-141.90;48.56
5298;BME280;14738;42.668;23.250;2023-02-20T01:22:14;48404.19;;;-141.90;48.73
5298;BME280;14738;42.668;23.250;2023-02-20T01:24:40;48378.38;;;-141.90;48.60
5298;BME280;14738;42.668;23.250;2023-02-20T01:27:08;48380.38;;;-141.90;48.54
5298;BME280;14738;42.668;23.250;2023-02-20T01:29:33;48402.22;;;-141.90;48.69
5298;BME280;14738;42.668;23.250;2023-02-20T01:31:59;48378.38;;;-141.90;48.93
5298;BME280;14738;42.668;23.250;2023-02-20T01:34:24;48386.34;;;-141.90;48.67
5298;BME280;14738;42.668;23.250;2023-02-20T01:36:52;48382.34;;;-141.90;48.97
5298;BME280;14738;42.668;23.250;2023-02-20T01:39:21;48388.31;;;-141.90;49.17
5298;BME280;14738;42.668;23.250;2023-02-20T01:41:48;48388.31;;;-141.90;49.07
5298;BME280;14738;42.668;23.250;2023-02-20T01:44:20;48358.53;;;-141.90;48.81
5298;BME280;14738;42.668;23.250;2023-02-20T01:46:55;48374.41;;;-141.90;48.76
5298;BME280;14738;42.668;23.250;2023-02-20T01:49:32;48366.47;;;-141.90;48.81
5298;BME280;14738;42.668;23.250;2023-02-20T01:52:10;48398.25;;;-141.90;48.79
5298;BME280;14738;42.668;23.250;2023-02-20T01:54:39;48374.41;;;-141.90;48.92
5298;BME280;14738;42.668;23.250;2023-02-20T01:57:08;48398.25;;;-141.90;49.03
5298;BME280;14738;42.668;23.250;2023-02-20T01:59:37;48346.63;;;-141.90;48.33
5298;BME280;14738;42.668;23.250;2023-02-20T02:02:04;48410.16;;;-141.90;48.74
5298;BME280;14738;42.668;23.250;2023-02-20T02:04:32;48390.31;;;-141.90;48.64
5298;BME280;14738;42.668;23.250;2023-02-20T02:06:58;48386.34;;;-141.90;48.72
5298;BME280;14738;42.668;23.250;2023-02-20T02:09:31;48374.41;;;-141.90;48.56
5298;BME280;14738;42.668;23.250;2023-02-20T02:11:59;48386.34;;;-141.90;47.98
5298;BME280;14738;42.668;23.250;2023-02-20T02:14:25;48358.53;;;-141.90;48.45
5298;BME280;14738;42.668;23.250;2023-02-20T02:25:37;48378.38;;;-141.90;48.41
5298;BME280;14738;42.668;23.250;2023-02-20T02:30:51;48378.38;;;-141.90;49.06
5298;BME280;14738;42.668;23.250;2023-02-20T02:36:35;48378.38;;;-141.90;49.38
5298;BME280;14738;42.668;23.250;2023-02-20T02:44:18;48390.31;;;-141.90;50.50
5298;BME280;14738;42.668;23.250;2023-02-20T02:47:10;48398.25;;;-141.90;50.54
5298;BME280;14738;42.668;23.250;2023-02-20T02:49:50;48392.28;;;-141.90;50.69
5298;BME280;14738;42.668;23.250;2023-02-20T02:52:20;48390.31;;;-141.90;50.37
5298;BME280;14738;42.668;23.250;2023-02-20T02:55:07;48408.16;;;-141.90;50.40
5298;BME280;14738;42.668;23.250;2023-02-20T02:57:33;48362.50;;;-141.90;50.58
5298;BME280;14738;42.668;23.250;2023-02-20T03:00:04;48372.44;;;-141.90;50.32
5298;BME280;14738;42.668;23.250;2023-02-20T03:02:35;48354.56;;;-141.90;50.13
5298;BME280;14738;42.668;23.250;2023-02-20T03:05:04;48362.50;;;-141.90;50.20
5298;BME280;14738;42.668;23.250;2023-02-20T03:07:33;48394.28;;;-141.90;50.42
5298;BME280;14738;42.668;23.250;2023-02-20T03:10:09;48398.25;;;-141.90;50.43
5298;BME280;14738;42.668;23.250;2023-02-20T03:12:38;48414.13;;;-141.90;50.25
5298;BME280;14738;42.668;23.250;2023-02-20T03:15:20;48392.28;;;-141.90;50.54
5298;BME280;14738;42.668;23.250;2023-02-20T03:20:53;48378.38;;;-141.90;49.90
5298;BME280;14738;42.668;23.250;2023-02-20T03:23:25;48378.38;;;-141.90;49.75
5298;BME280;14738;42.668;23.250;2023-02-20T03:26:00;48394.28;;;-141.90;50.17
5298;BME280;14738;42.668;23.250;2023-02-20T03:28:31;48374.41;;;-141.90;50.19
5298;BME280;14738;42.668;23.250;2023-02-20T03:33:46;48378.38;;;-141.90;50.17
5298;BME280;14738;42.668;23.250;2023-02-20T03:36:40;48394.28;;;-141.90;50.10
5298;BME280;14738;42.668;23.250;2023-02-20T03:39:31;48406.19;;;-141.90;50.03
5298;BME280;14738;42.668;23.250;2023-02-20T03:42:18;48410.16;;;-141.90;50.02
5298;BME280;14738;42.668;23.250;2023-02-20T03:45:05;48408.16;;;-141.90;50.32
5298;BME280;14738;42.668;23.250;2023-02-20T03:47:32;48398.25;;;-141.90;50.34
5298;BME280;14738;42.668;23.250;2023-02-20T03:50:00;48376.41;;;-141.90;50.42
5298;BME280;14738;42.668;23.250;2023-02-20T03:52:27;48418.09;;;-141.90;50.74
5298;BME280;14738;42.668;23.250;2023-02-20T03:54:52;48414.13;;;-141.90;50.32
5298;BME280;14738;42.668;23.250;2023-02-20T03:57:23;48400.22;;;-141.90;50.18
5298;BME280;14738;42.668;23.250;2023-02-20T04:02:24;48394.28;;;-141.90;49.98
5298;BME280;14738;42.668;23.250;2023-02-20T04:04:54;48392.28;;;-141.90;50.03
5298;BME280;14738;42.668;23.250;2023-02-20T04:07:29;48376.41;;;-141.90;49.32
5298;BME280;14738;42.668;23.250;2023-02-20T04:09:58;48380.38;;;-141.90;48.99
5298;BME280;14738;42.668;23.250;2023-02-20T04:12:27;48410.16;;;-141.90;48.17
5298;BME280;14738;42.668;23.250;2023-02-20T04:14:55;48414.13;;;-141.90;47.75
5298;BME280;14738;42.668;23.250;2023-02-20T04:17:30;48356.56;;;-141.90;47.85
5298;BME280;14738;42.668;23.250;2023-02-20T04:19:56;48426.03;;;-141.90;47.66
5298;BME280;14738;42.668;23.250;2023-02-20T04:22:28;48390.31;;;-141.90;47.38
5298;BME280;14738;42.668;23.250;2023-02-20T04:25:02;48416.09;;;-141.90;47.61
5298;BME280;14738;42.668;23.250;2023-02-20T04:27:30;48362.50;;;-141.90;47.50
5298;BME280;14738;42.668;23.250;2023-02-20T04:29:56;48380.38;;;-141.90;48.10
5298;BME280;14738;42.668;23.250;2023-02-20T04:32:22;48408.16;;;-141.90;47.58
5298;BME280;14738;42.668;23.250;2023-02-20T04:34:47;48394.28;;;-141.90;47.63
5298;BME280;14738;42.668;23.250;2023-02-20T04:37:16;48398.25;;;-141.90;47.71
5298;BME280;14738;42.668;23.250;2023-02-20T04:39:43;48386.34;;;-141.90;46.78
5298;BME280;14738;42.668;23.250;2023-02-20T04:42:08;48390.31;;;-141.90;46.02
5298;BME280;14738;42.668;23.250;2023-02-20T04:44:34;48404.19;;;-141.90;46.66
5298;BME280;14738;42.668;23.250;2023-02-20T04:47:03;48408.16;;;-141.90;46.30
5298;BME280;14738;42.668;23.250;2023-02-20T04:49:29;48400.22;;;-141.90;46.59
5298;BME280;14738;42.668;23.250;2023-02-20T04:51:54;48408.16;;;-141.90;46.40
5298;BME280;14738;42.668;23.250;2023-02-20T04:54:20;48406.19;;;-141.90;46.30
5298;BME280;14738;42.668;23.250;2023-02-20T04:56:46;48408.16;;;-141.90;46.18
5298;BME280;14738;42.668;23.250;2023-02-20T04:59:12;48404.19;;;-141.90;46.49
5298;BME280;14738;42.668;23.250;2023-02-20T05:01:37;48404.19;;;-141.90;46.30
5298;BME280;14738;42.668;23.250;2023-02-20T05:04:03;48386.34;;;-141.90;46.22
5298;BME280;14738;42.668;23.250;2023-02-20T05:06:29;48414.13;;;-141.90;45.38
5298;BME280;14738;42.668;23.250;2023-02-20T05:08:54;48426.03;;;-141.90;46.00
5298;BME280;14738;42.668;23.250;2023-02-20T05:11:20;48394.28;;;-141.90;45.45
5298;BME280;14738;42.668;23.250;2023-02-20T05:13:46;48378.38;;;-141.90;45.59
5298;BME280;14738;42.668;23.250;2023-02-20T05:16:11;48396.25;;;-141.90;45.92
5298;BME280;14738;42.668;23.250;2023-02-20T05:18:40;48406.19;;;-141.90;45.75
5298;BME280;14738;42.668;23.250;2023-02-20T05:21:05;48402.22;;;-141.90;46.11
5298;BME280;14738;42.668;23.250;2023-02-20T05:23:49;48394.28;;;-141.90;46.17
5298;BME280;14738;42.668;23.250;2023-02-20T05:26:18;48410.16;;;-141.90;46.23
5298;BME280;14738;42.668;23.250;2023-02-20T05:28:44;48386.34;;;-141.90;46.12
5298;BME280;14738;42.668;23.250;2023-02-20T05:31:10;48392.28;;;-141.90;46.07
5298;BME280;14738;42.668;23.250;2023-02-20T05:33:35;48410.16;;;-141.90;46.52
5298;BME280;14738;42.668;23.250;2023-02-20T05:36:01;48392.28;;;-141.90;46.30
5298;BME280;14738;42.668;23.250;2023-02-20T05:38:27;48394.28;;;-141.90;46.25
5298;BME280;14738;42.668;23.250;2023-02-20T05:40:52;48374.41;;;-141.90;46.37
5298;BME280;14738;42.668;23.250;2023-02-20T05:43:18;48370.44;;;-141.90;45.76
5298;BME280;14738;42.668;23.250;2023-02-20T05:45:44;48406.19;;;-141.90;45.79
5298;BME280;14738;42.668;23.250;2023-02-20T05:48:12;48388.31;;;-141.90;44.64
5298;BME280;14738;42.668;23.250;2023-02-20T05:50:38;48386.34;;;-141.90;42.88
5298;BME280;14738;42.668;23.250;2023-02-20T05:53:03;48374.41;;;-141.90;40.86
5298;BME280;14738;42.668;23.250;2023-02-20T05:55:29;48386.34;;;-141.90;39.26
5298;BME280;14738;42.668;23.250;2023-02-20T05:57:58;48346.63;;;-141.90;39.30
5298;BME280;14738;42.668;23.250;2023-02-20T06:00:24;48354.56;;;-141.90;38.23
5298;BME280;14738;42.668;23.250;2023-02-20T06:02:49;48362.50;;;-141.90;37.52
5298;BME280;14738;42.668;23.250;2023-02-20T06:05:15;48350.59;;;-141.90;37.18
5298;BME280;14738;42.668;23.250;2023-02-20T06:07:45;48350.59;;;-141.90;37.38
5298;BME280;14738;42.668;23.250;2023-02-20T06:10:11;48354.56;;;-141.90;37.33
5298;BME280;14738;42.668;23.250;2023-02-20T06:12:37;48362.50;;;-141.90;37.13
5298;BME280;14738;42.668;23.250;2023-02-20T06:15:03;48388.31;;;-141.90;36.66
5298;BME280;14738;42.668;23.250;2023-02-20T06:17:31;48362.50;;;-141.90;36.05
5298;BME280;14738;42.668;23.250;2023-02-20T06:19:57;48380.38;;;-141.90;35.86
5298;BME280;14738;42.668;23.250;2023-02-20T06:22:22;48402.22;;;-141.90;35.25
5298;BME280;14738;42.668;23.250;2023-02-20T06:24:48;48376.41;;;-141.90;35.00
5298;BME280;14738;42.668;23.250;2023-02-20T06:27:15;48362.50;;;-141.90;33.98
5298;BME280;14738;42.668;23.250;2023-02-20T06:29:40;48374.41;;;-141.90;33.49
5298;BME280;14738;42.668;23.250;2023-02-20T06:32:06;48388.31;;;-141.90;33.48
5298;BME280;14738;42.668;23.250;2023-02-20T06:34:32;48360.53;;;-141.90;34.61
5298;BME280;14738;42.668;23.250;2023-02-20T06:37:01;48350.59;;;-141.90;34.28
5298;BME280;14738;42.668;23.250;2023-02-20T06:39:27;48364.50;;;-141.90;34.74
5298;BME280;14738;42.668;23.250;2023-02-20T06:41:54;48368.47;;;-141.90;34.50
5298;BME280;14738;42.668;23.250;2023-02-20T06:44:19;48370.44;;;-141.90;34.28
5298;BME280;14738;42.668;23.250;2023-02-20T06:46:45;48360.53;;;-141.90;34.99
5298;BME280;14738;42.668;23.250;2023-02-20T06:49:10;48342.66;;;-141.90;35.56
5298;BME280;14738;42.668;23.250;2023-02-20T06:51:36;48382.34;;;-141.90;36.12
5298;BME280;14738;42.668;23.250;2023-02-20T06:54:02;48370.44;;;-141.90;36.66
5298;BME280;14738;42.668;23.250;2023-02-20T06:56:30;48408.16;;;-141.90;36.91
5298;BME280;14738;42.668;23.250;2023-02-20T06:58:57;48394.28;;;-141.90;36.69
5298;BME280;14738;42.668;23.250;2023-02-20T07:01:25;48394.28;;;-141.90;36.08
5298;BME280;14738;42.668;23.250;2023-02-20T07:03:53;48370.44;;;-141.90;36.00
5298;BME280;14738;42.668;23.250;2023-02-20T07:06:20;48378.38;;;-141.90;35.66
5298;BME280;14738;42.668;23.250;2023-02-20T07:08:46;48358.53;;;-141.90;35.74
5298;BME280;14738;42.668;23.250;2023-02-20T07:11:12;48380.38;;;-141.90;34.87
5298;BME280;14738;42.668;23.250;2023-02-20T07:13:38;48392.28;;;-141.90;34.47
5298;BME280;14738;42.668;23.250;2023-02-20T07:16:04;48350.59;;;-141.90;33.65
5298;BME280;14738;42.668;23.250;2023-02-20T07:18:30;48326.78;;;-141.90;33.75
5298;BME280;14738;42.668;23.250;2023-02-20T07:20:55;48386.34;;;-141.90;33.77
5298;BME280;14738;42.668;23.250;2023-02-20T07:23:21;48378.38;;;-141.90;33.10
5298;BME280;14738;42.668;23.250;2023-02-20T07:25:47;48378.38;;;-141.90;32.93
5298;BME280;14738;42.668;23.250;2023-02-20T07:28:14;48386.34;;;-141.90;33.03
5298;BME280;14738;42.668;23.250;2023-02-20T07:30:39;48364.50;;;-141.90;32.42
5298;BME280;14738;42.668;23.250;2023-02-20T07:33:05;48354.56;;;-141.90;33.13
5298;BME280;14738;42.668;23.250;2023-02-20T07:35:31;48358.53;;;-141.90;33.45
5298;BME280;14738;42.668;23.250;2023-02-20T07:37:56;48378.38;;;-141.90;32.97
5298;BME280;14738;42.668;23.250;2023-02-20T07:40:22;48374.41;;;-141.90;32.68
5298;BME280;14738;42.668;23.250;2023-02-20T07:42:47;48354.56;;;-141.90;32.79
5298;BME280;14738;42.668;23.250;2023-02-20T07:45:13;48342.66;;;-141.90;31.99
5298;BME280;14738;42.668;23.250;2023-02-20T07:47:38;48348.63;;;-141.90;32.15
5298;BME280;14738;42.668;23.250;2023-02-20T07:50:04;48360.53;;;-141.90;32.35
5298;BME280;14738;42.668;23.250;2023-02-20T07:52:30;48376.41;;;-141.90;32.68
5298;BME280;14738;42.668;23.250;2023-02-20T07:54:55;48378.38;;;-141.90;31.67
5298;BME280;14738;42.668;23.250;2023-02-20T07:57:20;48390.31;;;-141.90;32.19
5298;BME280;14738;42.668;23.250;2023-02-20T07:59:46;48366.47;;;-141.90;32.22
5298;BME280;14738;42.668;23.250;2023-02-20T08:02:11;48362.50;;;-141.90;32.29
5298;BME280;14738;42.668;23.250;2023-02-20T08:04:37;48364.50;;;-141.90;31.92
5298;BME280;14738;42.668;23.250;2023-02-20T08:07:02;48392.28;;;-141.90;32.75
5298;BME280;14738;42.668;23.250;2023-02-20T08:09:30;48388.31;;;-141.90;32.14
5298;BME280;14738;42.668;23.250;2023-02-20T08:11:56;48366.47;;;-141.90;32.64
5298;BME280;14738;42.668;23.250;2023-02-20T08:14:21;48388.31;;;-141.90;32.22
5298;BME280;14738;42.668;23.250;2023-02-20T08:16:47;48372.44;;;-141.90;31.96
5298;BME280;14738;42.668;23.250;2023-02-20T08:19:12;48352.59;;;-141.90;31.77
5298;BME280;14738;42.668;23.250;2023-02-20T08:21:38;48334.72;;;-141.90;31.75
5298;BME280;14738;42.668;23.250;2023-02-20T08:24:03;48374.41;;;-141.90;31.67
5298;BME280;14738;42.668;23.250;2023-02-20T08:26:29;48370.44;;;-141.90;31.81
5298;BME280;14738;42.668;23.250;2023-02-20T08:28:55;48338.69;;;-141.90;31.47
5298;BME280;14738;42.668;23.250;2023-02-20T08:31:20;48348.63;;;-141.90;31.98
5298;BME280;14738;42.668;23.250;2023-02-20T08:33:46;48386.34;;;-141.90;31.99
5298;BME280;14738;42.668;23.250;2023-02-20T08:36:11;48370.44;;;-141.90;31.87
5298;BME280;14738;42.668;23.250;2023-02-20T08:38:39;48386.34;;;-141.90;31.40
5298;BME280;14738;42.668;23.250;2023-02-20T08:41:07;48386.34;;;-141.90;31.26
5298;BME280;14738;42.668;23.250;2023-02-20T08:43:34;48362.50;;;-141.90;31.45
5298;BME280;14738;42.668;23.250;2023-02-20T08:46:00;48370.44;;;-141.90;31.72
5298;BME280;14738;42.668;23.250;2023-02-20T08:48:26;48370.44;;;-141.90;31.20
5298;BME280;14738;42.668;23.250;2023-02-20T08:50:51;48348.63;;;-141.90;31.27
5298;BME280;14738;42.668;23.250;2023-02-20T08:53:17;48378.38;;;-141.90;30.92
5298;BME280;14738;42.668;23.250;2023-02-20T08:55:43;48362.50;;;-141.90;30.62
5298;BME280;14738;42.668;23.250;2023-02-20T08:58:08;48388.31;;;-141.90;31.11
5298;BME280;14738;42.668;23.250;2023-02-20T09:00:35;48396.25;;;-141.90;30.33
5298;BME280;14738;42.668;23.250;2023-02-20T09:03:00;48350.59;;;-141.90;30.84
5298;BME280;14738;42.668;23.250;2023-02-20T09:05:26;48408.16;;;-141.90;30.23
5298;BME280;14738;42.668;23.250;2023-02-20T09:07:51;48394.28;;;-141.90;30.07
5298;BME280;14738;42.668;23.250;2023-02-20T09:10:18;48302.94;;;-141.90;30.75
5298;BME280;14738;42.668;23.250;2023-02-20T09:12:44;48374.41;;;-141.90;31.18
5298;BME280;14738;42.668;23.250;2023-02-20T09:15:10;48358.53;;;-141.90;31.14
5298;BME280;14738;42.668;23.250;2023-02-20T09:17:37;48360.53;;;-141.90;31.25
5298;BME280;14738;42.668;23.250;2023-02-20T09:20:03;48358.53;;;-141.90;31.60
5298;BME280;14738;42.668;23.250;2023-02-20T09:22:29;48356.56;;;-141.90;31.66
5298;BME280;14738;42.668;23.250;2023-02-20T09:24:55;48372.44;;;-141.90;31.25
5298;BME280;14738;42.668;23.250;2023-02-20T09:27:20;48372.44;;;-141.90;30.74
5298;BME280;14738;42.668;23.250;2023-02-20T09:29:46;48358.53;;;-141.90;31.00
5298;BME280;14738;42.668;23.250;2023-02-20T09:32:12;48356.56;;;-141.90;30.77
5298;BME280;14738;42.668;23.250;2023-02-20T09:34:38;48378.38;;;-141.90;30.80
5298;BME280;14738;42.668;23.250;2023-02-20T09:37:04;48384.34;;;-141.90;31.29
5298;BME280;14738;42.668;23.250;2023-02-20T09:39:30;48362.50;;;-141.90;31.17
5298;BME280;14738;42.668;23.250;2023-02-20T09:47:55;48378.38;;;-141.90;30.72
5298;BME280;14738;42.668;23.250;2023-02-20T09:50:39;48394.28;;;-141.90;30.87
5298;BME280;14738;42.668;23.250;2023-02-20T09:53:50;48366.47;;;-141.90;30.59
5298;BME280;14738;42.668;23.250;2023-02-20T09:56:15;48378.38;;;-141.90;30.39
5298;BME280;14738;42.668;23.250;2023-02-20T10:01:14;48350.59;;;-141.90;28.93
5298;BME280;14738;42.668;23.250;2023-02-20T10:06:17;48374.41;;;-141.90;28.49
5298;BME280;14738;42.668;23.250;2023-02-20T10:08:42;48346.63;;;-141.90;28.12
5298;BME280;14738;42.668;23.250;2023-02-20T10:11:12;48342.66;;;-141.90;27.92
5298;BME280;14738;42.668;23.250;2023-02-20T10:19:25;48366.47;;;-141.90;27.02
5298;BME280;14738;42.668;23.250;2023-02-20T10:22:12;48374.41;;;-141.90;26.99
5298;BME280;14738;42.668;23.250;2023-02-20T10:30:03;48350.59;;;-141.90;27.04
5298;BME280;14738;42.668;23.250;2023-02-20T10:32:42;48388.31;;;-141.90;26.11
5298;BME280;14738;42.668;23.250;2023-02-20T10:35:17;48362.50;;;-141.90;26.81
5298;BME280;14738;42.668;23.250;2023-02-20T10:37:51;48332.72;;;-141.90;26.94
5298;BME280;14738;42.668;23.250;2023-02-20T10:40:33;48358.53;;;-141.90;26.94
5298;BME280;14738;42.668;23.250;2023-02-20T10:48:11;48350.59;;;-141.90;27.09
5298;BME280;14738;42.668;23.250;2023-02-20T10:50:47;48372.44;;;-141.90;26.89
5298;BME280;14738;42.668;23.250;2023-02-20T11:01:23;48360.53;;;-141.90;27.46
5298;BME280;14738;42.668;23.250;2023-02-20T11:04:00;48370.44;;;-141.90;27.49
5298;BME280;14738;42.668;23.250;2023-02-20T11:06:39;48360.53;;;-141.90;27.16
5298;BME280;14738;42.668;23.250;2023-02-20T11:09:06;48364.50;;;-141.90;27.51
5298;BME280;14738;42.668;23.250;2023-02-20T11:11:37;48334.72;;;-141.90;27.32
5298;BME280;14738;42.668;23.250;2023-02-20T11:14:14;48342.66;;;-141.90;27.72
5298;BME280;14738;42.668;23.250;2023-02-20T11:17:04;48390.31;;;-141.90;27.55
5298;BME280;14738;42.668;23.250;2023-02-20T11:19:47;48368.47;;;-141.90;27.51
5298;BME280;14738;42.668;23.250;2023-02-20T11:22:15;48348.63;;;-141.90;27.69
5298;BME280;14738;42.668;23.250;2023-02-20T11:24:44;48376.41;;;-141.90;28.05
5298;BME280;14738;42.668;23.250;2023-02-20T11:27:21;48295.00;;;-141.90;27.94
5298;BME280;14738;42.668;23.250;2023-02-20T11:29:52;48370.44;;;-141.90;27.95
5298;BME280;14738;42.668;23.250;2023-02-20T11:34:44;48386.34;;;-141.90;27.95
5298;BME280;14738;42.668;23.250;2023-02-20T11:37:10;48376.41;;;-141.90;27.03
5298;BME280;14738;42.668;23.250;2023-02-20T11:39:36;48362.50;;;-141.90;27.37
5298;BME280;14738;42.668;23.250;2023-02-20T11:42:08;48352.59;;;-141.90;26.85
5298;BME280;14738;42.668;23.250;2023-02-20T11:44:35;48362.50;;;-141.90;26.95
5298;BME280;14738;42.668;23.250;2023-02-20T11:49:33;48346.63;;;-141.90;27.70
5298;BME280;14738;42.668;23.250;2023-02-20T11:52:20;48378.38;;;-141.90;27.67
5298;BME280;14738;42.668;23.250;2023-02-20T11:54:47;48392.28;;;-141.90;27.29
5298;BME280;14738;42.668;23.250;2023-02-20T11:57:32;48366.47;;;-141.90;27.46
5298;BME280;14738;42.668;23.250;2023-02-20T12:00:13;48360.53;;;-141.90;27.52
5298;BME280;14738;42.668;23.250;2023-02-20T12:05:43;48372.44;;;-141.90;27.26
5298;BME280;14738;42.668;23.250;2023-02-20T12:08:33;48360.53;;;-141.90;26.95
5298;BME280;14738;42.668;23.250;2023-02-20T12:11:05;48362.50;;;-141.90;27.02
5298;BME280;14738;42.668;23.250;2023-02-20T12:13:43;48374.41;;;-141.90;27.12
5298;BME280;14738;42.668;23.250;2023-02-20T12:16:27;48390.31;;;-141.90;27.14
5298;BME280;14738;42.668;23.250;2023-02-20T12:19:16;48386.34;;;-141.90;27.33
5298;BME280;14738;42.668;23.250;2023-02-20T12:43:49;48362.50;;;-141.90;27.23
5298;BME280;14738;42.668;23.250;2023-02-20T12:46:34;48360.53;;;-141.90;27.53
5298;BME280;14738;42.668;23.250;2023-02-20T12:52:11;48378.38;;;-141.90;28.01
5298;BME280;14738;42.668;23.250;2023-02-20T12:54:53;48366.47;;;-141.90;27.98
5298;BME280;14738;42.668;23.250;2023-02-20T12:57:41;48354.56;;;-141.90;27.86
5298;BME280;14738;42.668;23.250;2023-02-20T13:03:09;48390.31;;;-141.90;27.85
5298;BME280;14738;42.668;23.250;2023-02-20T13:05:43;48372.44;;;-141.90;28.00
5298;BME280;14738;42.668;23.250;2023-02-20T13:08:32;48378.38;;;-141.90;28.21
5298;BME280;14738;42.668;23.250;2023-02-20T13:11:05;48326.78;;;-141.90;28.10
5298;BME280;14738;42.668;23.250;2023-02-20T13:13:59;48354.56;;;-141.90;28.04
5298;BME280;14738;42.668;23.250;2023-02-20T13:16:41;48406.19;;;-141.90;28.06
5298;BME280;14738;42.668;23.250;2023-02-20T13:19:16;48370.44;;;-141.90;27.88
5298;BME280;14738;42.668;23.250;2023-02-20T13:21:45;48354.56;;;-141.90;27.82
5298;BME280;14738;42.668;23.250;2023-02-20T13:24:25;48398.25;;;-141.90;28.28
5298;BME280;14738;42.668;23.250;2023-02-20T13:26:55;48354.56;;;-141.90;28.40
5298;BME280;14738;42.668;23.250;2023-02-20T13:29:23;48342.66;;;-141.90;27.97
5298;BME280;14738;42.668;23.250;2023-02-20T13:31:56;48366.47;;;-141.90;27.88
5298;BME280;14738;42.668;23.250;2023-02-20T13:36:51;48390.31;;;-141.90;27.50
5298;BME280;14738;42.668;23.250;2023-02-20T13:42:02;48376.41;;;-141.90;27.60
5298;BME280;14738;42.668;23.250;2023-02-20T13:44:43;48358.53;;;-141.90;28.38
5298;BME280;14738;42.668;23.250;2023-02-20T13:52:31;48370.44;;;-141.90;28.00
5298;BME280;14738;42.668;23.250;2023-02-20T14:02:45;48370.44;;;-141.90;28.83
5298;BME280;14738;42.668;23.250;2023-02-20T14:05:40;48338.69;;;-141.90;29.03
5298;BME280;14738;42.668;23.250;2023-02-20T14:08:15;48362.50;;;-141.90;28.69
5298;BME280;14738;42.668;23.250;2023-02-20T14:10:40;48382.34;;;-141.90;28.99
5298;BME280;14738;42.668;23.250;2023-02-20T14:13:22;48354.56;;;-141.90;28.81
5298;BME280;14738;42.668;23.250;2023-02-20T14:15:54;48346.63;;;-141.90;29.21
5298;BME280;14738;42.668;23.250;2023-02-20T14:20:55;48362.50;;;-141.90;30.10
5298;BME280;14738;42.668;23.250;2023-02-20T14:23:28;48366.47;;;-141.90;30.27
5298;BME280;14738;42.668;23.250;2023-02-20T14:25:59;48362.50;;;-141.90;30.19
5298;BME280;14738;42.668;23.250;2023-02-20T14:28:30;48388.31;;;-141.90;30.08
5298;BME280;14738;42.668;23.250;2023-02-20T14:31:05;48374.41;;;-141.90;30.59
5298;BME280;14738;42.668;23.250;2023-02-20T14:33:31;48376.41;;;-141.90;30.92
5298;BME280;14738;42.668;23.250;2023-02-20T14:36:47;48378.38;;;-141.90;30.96
5298;BME280;14738;42.668;23.250;2023-02-20T14:42:00;48340.66;;;-141.90;31.38
5298;BME280;14738;42.668;23.250;2023-02-20T14:44:27;48378.38;;;-141.90;31.36
5298;BME280;14738;42.668;23.250;2023-02-20T14:46:56;48378.38;;;-141.90;31.61
5298;BME280;14738;42.668;23.250;2023-02-20T14:49:27;48370.44;;;-141.90;31.81
5298;BME280;14738;42.668;23.250;2023-02-20T14:52:23;48378.38;;;-141.90;31.65
5298;BME280;14738;42.668;23.250;2023-02-20T14:54:57;48392.28;;;-141.90;31.65
5298;BME280;14738;42.668;23.250;2023-02-20T14:57:23;48330.75;;;-141.90;32.32